BGSFBGBW

Guest
Details From BGSF - Kangerlussuaq
To BGBW - Narsarsuaq
Flight Number -
Tags generated
Created
Modified
Stats Distance 378 nm / 700 km
Max Altitude 31,400 ft / 9,571 m
Waypoints 6
Social Downloads 0
Likes 0
Share VATSIM

Download

Looking for another format? Having issues loading an existing format? Contact us
Advertisement - Login to hide

Notes

Basic altitude profile: - Ascent Rate: 2500ft/min - Ascent Speed: 250kts - Cruise Altitude: 35000ft - Cruise Speed: 420kts - Descent Rate: 1500ft/min - Descent Speed: 250kts Options: - Use NATs: no - Use PACOTS: no - Use low airways: yes - Use high airways: no

Route

BGSF TOLAN W21 NA BGBW

ID Type Via Altitude (ft/m) Position (lat/lon) Dist (leg/tot) Name
O BGSF APT - 0 / 0 67.01160 / -50.71472 - / 0 nm Kangerlussuaq
TOLAN FIX - 31,400 / 9,571 65.60306 / -49.34861 90 / 90 nm
ASVID FIX W21 (AWY-LO) 19,500 / 5,944 64.63028 / -48.37889 63 / 154 nm
NANSI FIX W21 (AWY-LO) 19,500 / 5,944 63.13528 / -46.99583 96 / 251 nm
NA NDB W21 (AWY-LO) 11,000 / 3,353 61.17074 / -45.41295 126 / 377 nm NARSARSUAQ NDB
O BGBW APT - 0 / 0 61.16052 / -45.42598 0 / 377 nm Narsarsuaq

Altitude Profile

Advertisement - Login to hide

Weather


0- 5 10 15 20 25 30 35+ Temperature / °C

Clouds and Precipitation
Forecast for 2018-10-17 06:00 UTC. Updated 5 hours ago

Ground ~20,000 ft ~40,000 ft Winds

BGSF

Details ICAO BGSF (SFJ)
Name Kangerlussuaq
Region Greenland
Timezone America/Godthab (UTC-2.0)
Stats Elevation 165 ft / 50 m (AMSL)
Location 67.017000° -50.689300°
Runways 1
Magnetic Variation 28.692° W

METAR

BGSF 170750Z AUTO 06008KT 9999NDV NCD M08/M13 Q0999

Decode

TAF

TAF BGSF 170455Z 1706/1724 07008KT 9999 FEW100= TAF EGWU 170433Z 1706/1724 22005KT 9999 BKN030 BECMG 1706/1708 BKN010 TEMPO 1706/1719 6000 -RADZ PROB30 TEMPO 1707/1716 3000 RADZ BKN005 BECMG 1716/1719 BKN030

Decode

Departure Runways

ID Width Length Bearing (true/mag) Surface Threshold Overrun Markings Lighting
10 197 ft / 60 m 9,171 ft / 2,795 m 61.58° / 90.27° ASPHALT 0 ft / 0 m 489 ft / 149 m PREC-APP EDGE THRESHOLD SSALR REIL-OMNI
28 197 ft / 60 m 9,171 ft / 2,795 m 241.63° / 270.32° ASPHALT 0 ft / 0 m 164 ft / 50 m PREC-APP EDGE THRESHOLD SSALF TDZ REIL-OMNI

BGBW

Details ICAO BGBW (UAK)
Name Narsarsuaq
Region Greenland
Timezone America/Godthab (UTC-2.0)
Stats Elevation 111 ft / 34 m (AMSL)
Location 61.160700° -45.425700°
Runways 1
Magnetic Variation 22.653° W

METAR

BGBW 170750Z 08004KT 050V120 9999 BKN120 BKN160 M05/M13 Q0991

Decode

TAF

Not found

Destination Runways

ID Width Length Bearing (true/mag) Surface Threshold Overrun Markings Lighting
07 148 ft / 45 m 6,010 ft / 1,832 m 40.52° / 63.17° CONCRETE 446 ft / 136 m 0 ft / 0 m PREC-APP EDGE THRESHOLD
25 148 ft / 45 m 6,010 ft / 1,832 m 220.54° / 243.19° CONCRETE 0 ft / 0 m 243 ft / 74 m PREC-APP EDGE THRESHOLD

Popular Alternatives